createdAt,value
2022-11-27T00:00:29.295Z,23.93
2022-11-27T00:03:32.007Z,29.13
2022-11-27T00:06:36.771Z,25.77
2022-11-27T00:09:39.842Z,28.33
2022-11-27T00:12:42.900Z,22.40
2022-11-27T00:15:45.602Z,23.50
2022-11-27T00:18:48.256Z,21.23
2022-11-27T00:21:52.305Z,22.93
2022-11-27T00:24:55.231Z,28.00
2022-11-27T00:27:57.896Z,28.45
2022-11-27T00:31:01.017Z,33.47
2022-11-27T00:34:07.751Z,27.92
2022-11-27T00:37:12.215Z,28.37
2022-11-27T00:40:15.548Z,31.10
2022-11-27T00:43:18.211Z,27.52
2022-11-27T00:46:27.824Z,28.97
2022-11-27T00:49:32.177Z,24.53
2022-11-27T00:52:36.207Z,25.33
2022-11-27T00:55:38.975Z,26.37
2022-11-27T00:58:41.571Z,25.23
2022-11-27T01:01:45.029Z,28.33
2022-11-27T01:04:48.022Z,27.63
2022-11-27T01:07:52.129Z,21.60
2022-11-27T01:10:56.570Z,25.37
2022-11-27T01:14:01.421Z,19.53
2022-11-27T01:17:04.748Z,22.87
2022-11-27T01:20:08.771Z,24.23
2022-11-27T01:23:12.775Z,25.40
2022-11-27T01:26:15.549Z,26.27
2022-11-27T01:29:18.199Z,21.97
2022-11-27T01:32:20.751Z,21.67
2022-11-27T01:35:23.399Z,20.93
2022-11-27T01:38:28.163Z,20.73
2022-11-27T01:41:32.376Z,20.53
2022-11-27T01:44:50.290Z,16.90
2022-11-27T01:47:55.026Z,19.33
2022-11-27T01:50:57.731Z,21.97
2022-11-27T01:54:01.860Z,18.60
2022-11-27T01:57:08.200Z,21.57
2022-11-27T02:00:14.103Z,19.97
2022-11-27T02:03:16.988Z,20.10
2022-11-27T02:06:19.823Z,19.27
2022-11-27T02:09:23.852Z,22.30
2022-11-27T02:12:28.383Z,21.90
2022-11-27T02:15:36.444Z,22.67
2022-11-27T02:18:43.706Z,22.40
2022-11-27T02:21:49.474Z,18.43
2022-11-27T02:24:57.742Z,19.97
2022-11-27T02:28:14.651Z,16.13
2022-11-27T02:31:23.739Z,24.77
2022-11-27T02:34:29.366Z,18.67
2022-11-27T02:37:35.010Z,21.00
2022-11-27T02:40:40.244Z,19.23
2022-11-27T02:43:46.239Z,17.17
2022-11-27T02:46:50.996Z,17.47
2022-11-27T02:49:57.013Z,18.37
2022-11-27T02:53:02.863Z,14.70
2022-11-27T02:56:08.193Z,21.10
2022-11-27T02:59:13.349Z,18.33
2022-11-27T03:02:20.114Z,19.63
2022-11-27T03:05:24.495Z,14.90
2022-11-27T03:08:32.081Z,19.53
2022-11-27T03:11:35.069Z,19.27
2022-11-27T03:14:38.890Z,23.35
2022-11-27T03:17:53.182Z,15.40
2022-11-27T03:21:02.255Z,22.30
2022-11-27T03:24:05.624Z,20.57
2022-11-27T03:27:08.385Z,18.10
2022-11-27T03:30:12.267Z,22.80
2022-11-27T03:36:20.668Z,14.13
2022-11-27T03:39:23.738Z,18.63
2022-11-27T03:42:30.421Z,22.70
2022-11-27T03:45:36.753Z,15.63
2022-11-27T03:48:44.990Z,15.97
2022-11-27T03:51:52.521Z,15.00
2022-11-27T03:55:00.878Z,17.97
2022-11-27T03:58:06.784Z,16.53
2022-11-27T04:01:11.774Z,17.00
2022-11-27T04:04:15.995Z,17.10
2022-11-27T04:07:18.727Z,17.70
2022-11-27T04:10:21.392Z,16.50
2022-11-27T04:13:24.025Z,15.03
2022-11-27T04:16:26.734Z,17.13
2022-11-27T04:19:30.725Z,18.50
2022-11-27T04:25:35.890Z,18.70
2022-11-27T04:28:38.619Z,14.43
2022-11-27T04:31:41.292Z,27.17
2022-11-27T04:34:45.505Z,17.73
2022-11-27T04:37:48.111Z,15.50
2022-11-27T04:40:52.591Z,16.00
2022-11-27T04:43:55.289Z,22.17
2022-11-27T04:46:58.006Z,16.30
2022-11-27T04:50:02.640Z,17.33
2022-11-27T04:53:05.367Z,18.63
2022-11-27T04:56:08.429Z,22.23
2022-11-27T04:59:11.005Z,14.90
2022-11-27T05:02:13.534Z,13.23
2022-11-27T05:05:20.253Z,20.60
2022-11-27T05:08:22.983Z,17.53
2022-11-27T05:11:25.582Z,20.43
2022-11-27T05:14:29.384Z,15.53
2022-11-27T05:17:31.951Z,17.13
2022-11-27T05:20:36.006Z,15.50
2022-11-27T05:23:38.635Z,15.73
2022-11-27T05:26:41.391Z,15.40
2022-11-27T05:29:43.957Z,16.60
2022-11-27T05:32:46.620Z,16.20
2022-11-27T05:35:50.491Z,16.23
2022-11-27T05:41:55.526Z,17.13
2022-11-27T05:44:58.722Z,21.70
2022-11-27T05:48:01.396Z,17.27
2022-11-27T05:51:06.066Z,13.40
2022-11-27T05:54:08.727Z,15.37
2022-11-27T05:57:11.616Z,14.30
2022-11-27T06:00:15.670Z,15.37
2022-11-27T06:03:18.632Z,16.97
2022-11-27T06:06:22.757Z,16.67
2022-11-27T06:09:25.737Z,16.63
2022-11-27T06:12:28.438Z,18.42
2022-11-27T06:15:31.102Z,19.43
2022-11-27T06:18:33.736Z,16.67
2022-11-27T06:21:38.111Z,12.57
2022-11-27T06:24:41.079Z,15.50
2022-11-27T06:27:44.088Z,15.80
2022-11-27T06:30:46.672Z,15.93
2022-11-27T06:33:50.618Z,16.30
2022-11-27T06:36:54.636Z,17.27
2022-11-27T06:39:57.303Z,13.77
2022-11-27T06:42:59.955Z,16.87
2022-11-27T06:46:03.451Z,14.63
2022-11-27T06:49:06.444Z,15.93
2022-11-27T06:52:10.462Z,17.58
2022-11-27T06:55:13.058Z,13.87
2022-11-27T06:58:15.753Z,16.67
2022-11-27T07:01:18.871Z,14.70
2022-11-27T07:04:21.570Z,14.35
2022-11-27T07:07:25.689Z,17.20
2022-11-27T07:10:28.398Z,19.87
2022-11-27T07:13:31.232Z,16.40
2022-11-27T07:16:35.962Z,15.10
2022-11-27T07:19:38.694Z,17.30
2022-11-27T07:22:43.174Z,14.27
2022-11-27T07:25:45.891Z,19.50
2022-11-27T07:28:48.851Z,15.30
2022-11-27T07:31:51.854Z,13.55
2022-11-27T07:34:54.565Z,16.05
2022-11-27T07:37:58.714Z,16.37
2022-11-27T07:41:02.045Z,17.90
2022-11-27T07:44:04.922Z,15.75
2022-11-27T07:47:07.682Z,20.17
2022-11-27T07:50:11.694Z,13.50
2022-11-27T07:53:15.777Z,18.27
2022-11-27T07:56:19.180Z,27.13
2022-11-27T07:59:21.956Z,18.58
2022-11-27T08:02:24.692Z,13.40
2022-11-27T08:05:27.400Z,14.17
2022-11-27T08:08:31.324Z,15.37
2022-11-27T08:14:38.316Z,14.35
2022-11-27T08:17:41.318Z,16.25
2022-11-27T08:20:43.948Z,15.57
2022-11-27T08:23:48.034Z,28.90
2022-11-27T08:26:52.141Z,25.23
2022-11-27T08:29:54.901Z,17.30
2022-11-27T08:32:57.509Z,16.30
2022-11-27T08:36:00.690Z,13.83
2022-11-27T08:39:04.855Z,21.52
2022-11-27T08:42:07.505Z,15.10
2022-11-27T08:45:11.620Z,16.07
2022-11-27T08:48:14.168Z,15.80
2022-11-27T08:51:17.406Z,17.50
2022-11-27T08:54:21.477Z,13.07
2022-11-27T08:57:24.480Z,15.37
2022-11-27T09:00:28.230Z,13.00
2022-11-27T09:06:34.887Z,18.77
2022-11-27T09:09:38.944Z,13.40
2022-11-27T09:12:43.567Z,12.57
2022-11-27T09:15:46.334Z,11.37
2022-11-27T09:18:51.390Z,10.00
2022-11-27T09:21:54.064Z,12.57
2022-11-27T09:24:58.235Z,12.53
2022-11-27T09:28:01.011Z,10.63
2022-11-27T09:31:08.279Z,11.63
2022-11-27T09:34:11.961Z,13.13
2022-11-27T09:37:14.594Z,11.20
2022-11-27T09:40:18.800Z,15.13
2022-11-27T09:43:28.145Z,10.70
2022-11-27T09:46:33.317Z,9.73
2022-11-27T09:49:39.350Z,11.97
2022-11-27T09:52:44.273Z,10.27
2022-11-27T09:55:51.111Z,9.40
2022-11-27T09:58:57.419Z,10.20
2022-11-27T10:02:00.208Z,9.73
2022-11-27T10:05:13.998Z,11.10
2022-11-27T10:08:31.408Z,11.50
2022-11-27T10:11:37.693Z,10.43
2022-11-27T10:15:00.753Z,11.30
2022-11-27T10:18:07.292Z,10.10
2022-11-27T10:21:16.671Z,10.33
2022-11-27T10:24:24.509Z,10.83
2022-11-27T10:27:34.230Z,12.33
2022-11-27T10:30:40.445Z,10.37
2022-11-27T10:33:45.095Z,12.50
2022-11-27T10:37:24.864Z,13.67
2022-11-27T10:40:31.933Z,15.43
2022-11-27T10:43:36.084Z,10.93
2022-11-27T10:46:40.339Z,11.83
2022-11-27T10:49:43.682Z,14.27
2022-11-27T10:52:52.472Z,16.05
2022-11-27T10:56:03.092Z,13.17
2022-11-27T10:59:10.537Z,12.53
2022-11-27T11:02:31.352Z,15.23
2022-11-27T11:06:04.134Z,11.13
2022-11-27T11:09:03.000Z,14.02
2022-11-27T11:12:09.138Z,11.73
2022-11-27T11:15:14.564Z,10.23
2022-11-27T11:18:18.587Z,11.53
2022-11-27T11:21:27.494Z,11.00
2022-11-27T11:24:31.389Z,13.10
2022-11-27T11:27:34.030Z,8.80
2022-11-27T11:30:39.522Z,8.23
2022-11-27T11:33:51.236Z,8.70
2022-11-27T11:36:57.844Z,9.13
2022-11-27T11:40:02.244Z,12.27
2022-11-27T11:43:10.111Z,9.50
2022-11-27T11:46:22.576Z,8.47
2022-11-27T11:49:26.295Z,9.53
2022-11-27T11:55:46.889Z,7.20
2022-11-27T11:58:56.485Z,7.57
2022-11-27T12:02:18.191Z,14.00
2022-11-27T12:05:26.815Z,6.10
2022-11-27T12:08:40.809Z,5.90
2022-11-27T12:14:51.905Z,5.85
2022-11-27T12:18:01.028Z,8.10
2022-11-27T12:21:12.638Z,7.10
2022-11-27T12:24:24.349Z,9.70
2022-11-27T12:27:34.582Z,7.87
2022-11-27T12:30:43.236Z,8.03
2022-11-27T12:33:58.494Z,8.30
2022-11-27T12:37:14.108Z,8.50
2022-11-27T12:40:30.297Z,9.70
2022-11-27T12:43:35.507Z,11.03
2022-11-27T12:46:44.334Z,9.87
2022-11-27T12:49:49.988Z,7.00
2022-11-27T12:53:00.145Z,9.20
2022-11-27T12:56:09.661Z,5.73
2022-11-27T12:59:15.614Z,5.53
2022-11-27T13:02:28.396Z,7.57
2022-11-27T13:05:35.956Z,8.57
2022-11-27T13:08:51.008Z,6.70
2022-11-27T13:11:55.559Z,5.20
2022-11-27T13:15:02.629Z,6.00
2022-11-27T13:18:13.370Z,5.50
2022-11-27T13:21:22.759Z,5.97
2022-11-27T13:24:27.227Z,4.50
2022-11-27T13:27:31.429Z,4.70
2022-11-27T13:30:37.053Z,4.17
2022-11-27T13:33:42.108Z,7.93
2022-11-27T13:36:48.333Z,6.00
2022-11-27T13:39:51.054Z,7.07
2022-11-27T13:42:56.464Z,6.93
2022-11-27T13:46:05.199Z,10.90
2022-11-27T13:49:08.187Z,9.43
2022-11-27T13:52:14.024Z,7.05
2022-11-27T13:55:25.060Z,6.67
2022-11-27T13:58:32.601Z,6.07
2022-11-27T14:01:35.356Z,7.00
2022-11-27T14:04:55.591Z,9.90
2022-11-27T14:08:00.781Z,7.33
2022-11-27T14:11:06.516Z,10.00
2022-11-27T14:14:16.253Z,9.57
2022-11-27T14:17:27.310Z,5.40
2022-11-27T14:20:31.660Z,8.63
2022-11-27T14:23:38.025Z,5.80
2022-11-27T14:26:42.335Z,8.27
2022-11-27T14:29:45.235Z,7.80
2022-11-27T14:32:49.017Z,5.68
2022-11-27T14:38:56.155Z,6.03
2022-11-27T14:42:00.367Z,8.67
2022-11-27T14:45:05.130Z,6.83
2022-11-27T14:48:07.988Z,5.50
2022-11-27T14:51:15.542Z,5.45
2022-11-27T14:54:23.600Z,6.57
2022-11-27T14:57:27.619Z,5.37
2022-11-27T15:00:32.420Z,7.03
2022-11-27T15:03:35.597Z,7.87
2022-11-27T15:06:41.741Z,11.40
2022-11-27T15:09:48.179Z,9.87
2022-11-27T15:12:51.622Z,9.40
2022-11-27T15:15:57.223Z,9.27
2022-11-27T15:19:02.503Z,15.97
2022-11-27T15:22:05.824Z,13.20
2022-11-27T15:25:31.098Z,27.15
2022-11-27T15:28:36.704Z,18.33
2022-11-27T15:31:39.728Z,10.47
2022-11-27T15:34:42.749Z,10.13
2022-11-27T15:37:45.590Z,7.70
2022-11-27T15:40:59.236Z,15.27
2022-11-27T15:44:03.198Z,10.93
2022-11-27T15:47:07.380Z,12.47
2022-11-27T15:50:15.583Z,16.40
2022-11-27T15:53:18.678Z,16.83
2022-11-27T15:56:22.738Z,9.43
2022-11-27T15:59:27.254Z,9.93
2022-11-27T16:02:31.209Z,11.27
2022-11-27T16:05:34.273Z,9.53
2022-11-27T16:08:37.124Z,12.27
2022-11-27T16:11:41.579Z,8.00
2022-11-27T16:14:44.340Z,8.40
2022-11-27T16:17:47.090Z,12.37
2022-11-27T16:20:49.833Z,8.27
2022-11-27T16:23:52.746Z,10.27
2022-11-27T16:26:57.257Z,12.55
2022-11-27T16:29:59.888Z,9.73
2022-11-27T16:33:02.888Z,9.03
2022-11-27T16:36:06.971Z,9.95
2022-11-27T16:39:09.851Z,11.13
2022-11-27T16:42:14.005Z,13.35
2022-11-27T16:45:16.632Z,9.53
2022-11-27T16:48:19.391Z,16.10
2022-11-27T16:51:23.734Z,15.98
2022-11-27T16:54:26.564Z,19.43
2022-11-27T16:57:30.667Z,12.65
2022-11-27T17:00:33.357Z,14.93
2022-11-27T17:03:36.274Z,20.70
2022-11-27T17:06:39.886Z,15.45
2022-11-27T17:09:43.002Z,18.40
2022-11-27T17:12:47.091Z,10.10
2022-11-27T17:15:49.730Z,12.43
2022-11-27T17:18:52.444Z,6.23
2022-11-27T17:21:55.436Z,7.30
2022-11-27T17:24:58.648Z,5.95
2022-11-27T17:28:02.645Z,7.80
2022-11-27T17:31:10.461Z,6.73
2022-11-27T17:34:14.643Z,9.33
2022-11-27T17:37:17.687Z,8.87
2022-11-27T17:40:20.500Z,7.45
2022-11-27T17:43:25.660Z,6.32
2022-11-27T17:46:30.507Z,8.97
2022-11-27T17:49:33.297Z,9.93
2022-11-27T17:52:36.012Z,5.40
2022-11-27T17:55:38.869Z,5.93
2022-11-27T17:58:43.455Z,7.00
2022-11-27T18:01:48.359Z,6.13
2022-11-27T18:04:51.040Z,7.53
2022-11-27T18:07:54.393Z,7.73
2022-11-27T18:10:57.026Z,9.50
2022-11-27T18:14:00.987Z,9.57
2022-11-27T18:17:05.492Z,13.63
2022-11-27T18:20:09.175Z,8.03
2022-11-27T18:23:12.255Z,7.55
2022-11-27T18:26:17.311Z,9.05
2022-11-27T18:29:21.685Z,7.50
2022-11-27T18:32:24.497Z,9.33
2022-11-27T18:35:27.386Z,8.00
2022-11-27T18:38:31.570Z,8.40
2022-11-27T18:41:34.736Z,5.80
2022-11-27T18:44:44.713Z,7.53
2022-11-27T18:47:47.940Z,6.47
2022-11-27T18:50:50.651Z,7.33
2022-11-27T18:53:54.350Z,7.83
2022-11-27T19:00:01.216Z,6.27
2022-11-27T19:03:04.149Z,8.77
2022-11-27T19:06:08.633Z,6.20
2022-11-27T19:09:12.320Z,5.53
2022-11-27T19:15:19.680Z,6.80
2022-11-27T19:18:22.507Z,7.03
2022-11-27T19:21:27.678Z,7.60
2022-11-27T19:24:30.297Z,10.50
2022-11-27T19:27:32.868Z,8.10
2022-11-27T19:30:38.498Z,11.67
2022-11-27T19:33:41.739Z,9.10
2022-11-27T19:36:44.607Z,8.38
2022-11-27T19:39:47.405Z,9.60
2022-11-27T19:42:55.636Z,10.05
2022-11-27T19:46:03.872Z,10.70
2022-11-27T19:49:08.217Z,10.10
2022-11-27T19:52:10.772Z,7.53
2022-11-27T19:55:13.357Z,10.80
2022-11-27T19:58:16.122Z,10.97
2022-11-27T20:01:20.723Z,13.03
2022-11-27T20:04:23.740Z,12.00
2022-11-27T20:07:26.416Z,12.55
2022-11-27T20:10:29.255Z,10.60
2022-11-27T20:13:31.813Z,13.55
2022-11-27T20:16:37.307Z,16.53
2022-11-27T20:19:40.314Z,15.27
2022-11-27T20:22:43.446Z,15.20
2022-11-27T20:25:49.380Z,10.77
2022-11-27T20:28:53.514Z,10.97
2022-11-27T20:31:57.791Z,9.93
2022-11-27T20:35:00.773Z,14.13
2022-11-27T20:38:03.819Z,9.15
2022-11-27T20:41:07.876Z,14.05
2022-11-27T20:44:11.542Z,9.20
2022-11-27T20:50:18.449Z,9.05
2022-11-27T20:53:21.284Z,10.25
2022-11-27T20:56:24.009Z,10.70
2022-11-27T20:59:26.642Z,12.07
2022-11-27T21:02:30.792Z,27.37
2022-11-27T21:05:33.734Z,10.07
2022-11-27T21:08:36.604Z,14.35
2022-11-27T21:11:39.393Z,11.57
2022-11-27T21:14:42.238Z,12.73
2022-11-27T21:17:46.307Z,12.35
2022-11-27T21:20:48.922Z,9.80
2022-11-27T21:23:51.785Z,10.43
2022-11-27T21:26:54.495Z,11.80
2022-11-27T21:29:57.266Z,10.67
2022-11-27T21:33:01.780Z,11.53
2022-11-27T21:36:05.405Z,15.23
2022-11-27T21:39:10.395Z,13.65
2022-11-27T21:42:13.261Z,13.57
2022-11-27T21:45:16.147Z,11.90
2022-11-27T21:48:20.733Z,14.48
2022-11-27T21:51:23.829Z,14.30
2022-11-27T21:54:26.647Z,14.68
2022-11-27T21:57:29.518Z,12.90
2022-11-27T22:00:32.402Z,13.23
2022-11-27T22:03:41.111Z,12.88
2022-11-27T22:06:45.481Z,23.07
2022-11-27T22:09:48.213Z,24.63
2022-11-27T22:12:50.820Z,14.97
2022-11-27T22:15:53.507Z,12.17
2022-11-27T22:18:58.805Z,10.17
2022-11-27T22:22:01.604Z,12.80
2022-11-27T22:25:04.891Z,9.35
2022-11-27T22:28:07.516Z,8.52
2022-11-27T22:31:11.137Z,9.50
2022-11-27T22:37:18.055Z,12.50
2022-11-27T22:40:21.805Z,11.35
2022-11-27T22:43:24.503Z,10.38
2022-11-27T22:46:29.167Z,12.47
2022-11-27T22:49:33.245Z,10.73
2022-11-27T22:52:35.958Z,12.80
2022-11-27T22:55:38.711Z,11.30
2022-11-27T22:58:42.105Z,11.13
2022-11-27T23:01:44.845Z,12.55
2022-11-27T23:04:48.894Z,10.67
2022-11-27T23:07:51.923Z,10.93
2022-11-27T23:10:54.620Z,11.05
2022-11-27T23:13:58.532Z,8.73
2022-11-27T23:17:01.181Z,10.07
2022-11-27T23:20:06.547Z,10.00
2022-11-27T23:23:10.028Z,9.70
2022-11-27T23:26:18.084Z,8.93
2022-11-27T23:29:21.081Z,9.33
2022-11-27T23:32:23.764Z,11.47
2022-11-27T23:35:28.855Z,8.47
2022-11-27T23:38:31.549Z,11.83
2022-11-27T23:41:34.338Z,9.03
2022-11-27T23:44:37.254Z,9.07
2022-11-27T23:47:40.271Z,9.15
2022-11-27T23:50:44.586Z,8.82
2022-11-27T23:53:47.739Z,11.60
2022-11-27T23:56:52.650Z,10.27
2022-11-27T23:59:55.366Z,10.33
